FDX6014 PANC-ZGGG
Flight info
| Callsign | FDX6014 |
|---|---|
| Flight time | N/A |
| Altitude | 30000 |
| Route | NODLE R220 NODAN R217 ASTER Y514 SDE Y512 GTC Y45 MIHOU Y14 DGC Y28 ISAKY Y592 ONIKU A593 LAMEN/K0919F300 A593 AKARA/K0919S0915 A593 PUD A599 NXD W131 AKDIM A470 DUBGO W134 ELNEX A599 PLT W19 OLPAB OLPAB5 |
| Aircraft | MD11/H-SDE1E2E3FGHIJ2J3J4J5M1RWXY/LB1D1 |
Departure
| Time | N/A |
|---|---|
| Airport | Ted Stevens Anchorage International Airport (PANC) |
Arrival
| Time | 2026-04-29 16:38 |
|---|---|
| Airport | Guangzhou Baiyun International Airport (ZGGG) |
| Time | Latitude | Longitude | Altitude | Speed | Heading |
|---|---|---|---|---|---|
| 2026-04-29 11:00 | 42.50137 | 147.62196 | 31998 ft | 381 kts | 231° |
| 2026-04-29 11:01 | 42.48223 | 147.59674 | 31998 ft | 381 kts | 231° |
| 2026-04-29 11:01 | 42.44433 | 147.54660 | 31987 ft | 381 kts | 231° |
| 2026-04-29 11:02 | 42.40650 | 147.49669 | 31999 ft | 380 kts | 231° |
| 2026-04-29 11:02 | 42.36949 | 147.44589 | 32000 ft | 380 kts | 231° |
| 2026-04-29 11:03 | 42.33174 | 147.39617 | 32000 ft | 382 kts | 231° |
| 2026-04-29 11:03 | 42.29356 | 147.34637 | 31999 ft | 381 kts | 231° |
| 2026-04-29 11:04 | 42.25526 | 147.29679 | 31998 ft | 381 kts | 230° |
| 2026-04-29 11:04 | 42.21686 | 147.24709 | 32003 ft | 383 kts | 230° |
| 2026-04-29 11:05 | 42.17836 | 147.19744 | 31997 ft | 384 kts | 231° |
| 2026-04-29 11:05 | 42.13982 | 147.14758 | 32007 ft | 384 kts | 230° |
| 2026-04-29 11:06 | 42.10125 | 147.09774 | 32008 ft | 384 kts | 231° |
| 2026-04-29 11:06 | 42.06256 | 147.04788 | 32008 ft | 385 kts | 231° |
| 2026-04-29 11:07 | 42.02376 | 146.99798 | 32008 ft | 386 kts | 230° |
| 2026-04-29 11:07 | 41.98491 | 146.94812 | 32008 ft | 387 kts | 230° |
| 2026-04-29 11:08 | 41.94590 | 146.89933 | 32009 ft | 379 kts | 229° |
| 2026-04-29 11:08 | 41.90943 | 146.84964 | 32005 ft | 376 kts | 231° |
| 2026-04-29 11:09 | 41.87135 | 146.80124 | 32008 ft | 377 kts | 231° |
| 2026-04-29 11:09 | 41.83314 | 146.75281 | 32008 ft | 379 kts | 231° |
| 2026-04-29 11:10 | 41.79501 | 146.70403 | 32008 ft | 379 kts | 231° |
| 2026-04-29 11:10 | 41.75688 | 146.65512 | 32008 ft | 380 kts | 231° |
| 2026-04-29 11:11 | 41.71873 | 146.60619 | 32008 ft | 380 kts | 231° |
| 2026-04-29 11:11 | 41.68050 | 146.55724 | 32008 ft | 381 kts | 231° |
| 2026-04-29 11:12 | 41.64218 | 146.50825 | 32008 ft | 381 kts | 231° |
| 2026-04-29 11:12 | 41.60400 | 146.45953 | 32008 ft | 382 kts | 231° |
| 2026-04-29 11:13 | 41.56551 | 146.41051 | 32008 ft | 382 kts | 231° |
| 2026-04-29 11:13 | 41.52704 | 146.36159 | 32008 ft | 382 kts | 231° |
| 2026-04-29 11:14 | 41.48849 | 146.31267 | 32008 ft | 382 kts | 231° |
| 2026-04-29 11:14 | 41.44993 | 146.26379 | 32008 ft | 382 kts | 231° |
| 2026-04-29 11:15 | 41.41134 | 146.21499 | 32008 ft | 382 kts | 231° |
| 2026-04-29 11:15 | 41.37280 | 146.16632 | 32015 ft | 382 kts | 231° |
| 2026-04-29 11:16 | 41.33427 | 146.11775 | 32017 ft | 381 kts | 231° |
| 2026-04-29 11:16 | 41.29566 | 146.06942 | 32017 ft | 381 kts | 231° |
| 2026-04-29 11:17 | 41.25711 | 146.02134 | 32017 ft | 380 kts | 231° |
| 2026-04-29 11:17 | 41.21868 | 145.97329 | 32041 ft | 379 kts | 231° |
| 2026-04-29 11:18 | 41.18015 | 145.92504 | 32071 ft | 381 kts | 231° |
| 2026-04-29 11:18 | 41.14159 | 145.87686 | 32072 ft | 380 kts | 231° |
| 2026-04-29 11:19 | 41.10312 | 145.82888 | 32072 ft | 379 kts | 231° |
| 2026-04-29 11:19 | 41.06472 | 145.78104 | 32073 ft | 378 kts | 232° |
| 2026-04-29 11:20 | 41.02645 | 145.73345 | 32072 ft | 377 kts | 232° |
| 2026-04-29 11:20 | 40.98820 | 145.68596 | 32073 ft | 377 kts | 232° |
| 2026-04-29 11:21 | 40.95001 | 145.63862 | 32073 ft | 376 kts | 232° |
| 2026-04-29 11:21 | 40.91186 | 145.59141 | 32073 ft | 376 kts | 232° |
| 2026-04-29 11:22 | 40.87393 | 145.54455 | 32072 ft | 375 kts | 232° |
| 2026-04-29 11:22 | 40.83577 | 145.49749 | 32073 ft | 375 kts | 232° |
| 2026-04-29 11:23 | 40.79766 | 145.45057 | 32073 ft | 374 kts | 232° |
| 2026-04-29 11:23 | 40.75963 | 145.40383 | 32073 ft | 374 kts | 232° |
| 2026-04-29 11:24 | 40.72158 | 145.35712 | 32065 ft | 374 kts | 232° |
| 2026-04-29 11:24 | 40.68342 | 145.31067 | 32063 ft | 373 kts | 232° |
| 2026-04-29 11:25 | 40.64526 | 145.26431 | 32064 ft | 373 kts | 232° |
| 2026-04-29 11:25 | 40.60724 | 145.21798 | 32064 ft | 372 kts | 232° |
| 2026-04-29 11:26 | 40.55030 | 145.14862 | 32064 ft | 372 kts | 232° |
| 2026-04-29 11:26 | 40.51236 | 145.10247 | 32064 ft | 371 kts | 232° |
| 2026-04-29 11:27 | 40.47440 | 145.05638 | 32063 ft | 372 kts | 232° |
| 2026-04-29 11:27 | 40.43646 | 145.01039 | 32058 ft | 371 kts | 232° |
| 2026-04-29 11:28 | 40.40008 | 144.96310 | 32053 ft | 362 kts | 239° |
| 2026-04-29 11:28 | 40.37270 | 144.90863 | 32048 ft | 356 kts | 245° |
| 2026-04-29 11:29 | 40.34747 | 144.85269 | 32045 ft | 356 kts | 245° |
| 2026-04-29 11:29 | 40.32207 | 144.79689 | 32044 ft | 356 kts | 245° |
| 2026-04-29 11:30 | 40.29650 | 144.74134 | 32043 ft | 356 kts | 245° |
| 2026-04-29 11:30 | 40.27086 | 144.68595 | 32047 ft | 355 kts | 245° |
| 2026-04-29 11:31 | 40.24534 | 144.63099 | 32042 ft | 355 kts | 245° |
| 2026-04-29 11:31 | 40.21966 | 144.57578 | 32043 ft | 355 kts | 245° |
| 2026-04-29 11:32 | 40.19403 | 144.52078 | 32050 ft | 354 kts | 245° |
| 2026-04-29 11:32 | 40.16838 | 144.46586 | 32034 ft | 353 kts | 245° |
| 2026-04-29 11:33 | 40.14277 | 144.41110 | 32038 ft | 352 kts | 245° |
| 2026-04-29 11:33 | 40.11719 | 144.35649 | 32037 ft | 352 kts | 245° |
| 2026-04-29 11:34 | 40.09159 | 144.30195 | 32038 ft | 352 kts | 245° |
| 2026-04-29 11:34 | 40.06602 | 144.24756 | 32035 ft | 351 kts | 245° |
| 2026-04-29 11:35 | 40.04049 | 144.19337 | 32038 ft | 350 kts | 245° |
| 2026-04-29 11:35 | 40.01494 | 144.13921 | 32046 ft | 350 kts | 245° |
| 2026-04-29 11:36 | 39.98940 | 144.08517 | 32062 ft | 350 kts | 245° |
| 2026-04-29 11:36 | 39.96383 | 144.03125 | 32063 ft | 350 kts | 245° |
| 2026-04-29 11:37 | 39.93804 | 143.97749 | 32063 ft | 350 kts | 245° |
| 2026-04-29 11:37 | 39.91232 | 143.92371 | 32063 ft | 350 kts | 245° |
| 2026-04-29 11:38 | 39.88669 | 143.86997 | 32063 ft | 350 kts | 245° |
| 2026-04-29 11:38 | 39.86103 | 143.81619 | 32064 ft | 350 kts | 245° |
| 2026-04-29 11:39 | 39.83535 | 143.76241 | 32064 ft | 350 kts | 245° |
| 2026-04-29 11:39 | 39.80959 | 143.70856 | 32064 ft | 351 kts | 245° |
| 2026-04-29 11:40 | 39.78379 | 143.65473 | 32063 ft | 351 kts | 245° |
| 2026-04-29 11:40 | 39.75809 | 143.60118 | 32064 ft | 352 kts | 245° |
| 2026-04-29 11:41 | 39.73211 | 143.54717 | 32063 ft | 352 kts | 245° |
| 2026-04-29 11:41 | 39.70613 | 143.49324 | 32063 ft | 353 kts | 245° |
| 2026-04-29 11:42 | 39.68005 | 143.43918 | 32064 ft | 353 kts | 245° |
| 2026-04-29 11:42 | 39.65391 | 143.38511 | 32063 ft | 354 kts | 245° |
| 2026-04-29 11:43 | 39.62771 | 143.33098 | 32063 ft | 355 kts | 245° |
| 2026-04-29 11:43 | 39.60140 | 143.27674 | 32063 ft | 355 kts | 245° |
| 2026-04-29 11:44 | 39.57507 | 143.22256 | 32063 ft | 356 kts | 245° |
| 2026-04-29 11:44 | 39.54864 | 143.16825 | 32057 ft | 356 kts | 245° |
| 2026-04-29 11:45 | 39.52211 | 143.11392 | 32055 ft | 357 kts | 245° |
| 2026-04-29 11:45 | 39.49531 | 143.05964 | 32055 ft | 358 kts | 245° |
| 2026-04-29 11:46 | 39.46852 | 143.00523 | 32052 ft | 358 kts | 245° |
| 2026-04-29 11:46 | 39.44178 | 142.95079 | 32055 ft | 358 kts | 245° |
| 2026-04-29 11:47 | 39.41507 | 142.89642 | 32066 ft | 358 kts | 245° |
| 2026-04-29 11:47 | 39.38832 | 142.84202 | 32073 ft | 359 kts | 245° |
| 2026-04-29 11:48 | 39.36603 | 142.79675 | 32073 ft | 359 kts | 245° |
| 2026-04-29 11:48 | 39.33917 | 142.74230 | 32073 ft | 360 kts | 245° |
| 2026-04-29 11:49 | 39.31223 | 142.68779 | 32073 ft | 360 kts | 245° |
| 2026-04-29 11:49 | 39.28527 | 142.63334 | 32073 ft | 360 kts | 245° |
| 2026-04-29 11:50 | 39.25697 | 142.57970 | 32072 ft | 365 kts | 241° |
| 2026-04-29 11:50 | 39.22432 | 142.52906 | 32073 ft | 368 kts | 239° |
| 2026-04-29 11:51 | 39.19101 | 142.47893 | 32072 ft | 368 kts | 239° |
| 2026-04-29 11:51 | 39.15782 | 142.42871 | 32073 ft | 368 kts | 239° |
| 2026-04-29 11:52 | 39.12473 | 142.37850 | 32072 ft | 367 kts | 239° |
| 2026-04-29 11:52 | 39.09170 | 142.32837 | 32073 ft | 367 kts | 239° |
| 2026-04-29 11:53 | 39.05858 | 142.27814 | 32073 ft | 368 kts | 239° |
| 2026-04-29 11:53 | 39.02561 | 142.22824 | 32072 ft | 369 kts | 239° |
| 2026-04-29 11:54 | 38.99234 | 142.17796 | 32073 ft | 369 kts | 239° |
| 2026-04-29 11:54 | 38.95897 | 142.12761 | 32072 ft | 371 kts | 239° |
| 2026-04-29 11:55 | 38.92551 | 142.07720 | 32073 ft | 371 kts | 238° |
| 2026-04-29 11:55 | 38.89196 | 142.02676 | 32072 ft | 372 kts | 238° |
| 2026-04-29 11:56 | 38.85833 | 141.97626 | 32072 ft | 372 kts | 238° |
| 2026-04-29 11:56 | 38.82459 | 141.92568 | 32081 ft | 373 kts | 238° |
| 2026-04-29 11:57 | 38.79081 | 141.87511 | 32082 ft | 373 kts | 238° |
| 2026-04-29 11:57 | 38.75696 | 141.82453 | 32082 ft | 374 kts | 238° |
| 2026-04-29 11:58 | 38.72302 | 141.77396 | 32082 ft | 374 kts | 238° |
| 2026-04-29 11:58 | 38.68891 | 141.72359 | 32085 ft | 375 kts | 238° |
| 2026-04-29 11:59 | 38.65476 | 141.67306 | 32092 ft | 375 kts | 238° |
| 2026-04-29 11:59 | 38.62066 | 141.62250 | 32091 ft | 375 kts | 238° |
| 2026-04-29 12:00 | 38.58656 | 141.57197 | 32098 ft | 375 kts | 238° |
| 2026-04-29 12:00 | 38.55243 | 141.52145 | 32100 ft | 376 kts | 238° |
| 2026-04-29 12:01 | 38.51805 | 141.47059 | 32101 ft | 380 kts | 238° |
| 2026-04-29 12:01 | 38.48349 | 141.41962 | 32101 ft | 380 kts | 238° |
| 2026-04-29 12:02 | 38.44894 | 141.36875 | 32101 ft | 379 kts | 238° |
| 2026-04-29 12:02 | 38.41435 | 141.31789 | 32104 ft | 379 kts | 238° |
| 2026-04-29 12:03 | 38.38000 | 141.26745 | 32122 ft | 380 kts | 238° |
| 2026-04-29 12:03 | 38.34535 | 141.21665 | 32125 ft | 380 kts | 238° |
| 2026-04-29 12:04 | 38.31067 | 141.16589 | 32121 ft | 380 kts | 238° |
| 2026-04-29 12:04 | 38.27600 | 141.11523 | 32123 ft | 380 kts | 238° |
| 2026-04-29 12:05 | 38.24127 | 141.06456 | 32126 ft | 380 kts | 238° |
| 2026-04-29 12:05 | 38.20651 | 141.01392 | 32131 ft | 380 kts | 238° |
| 2026-04-29 12:06 | 38.17168 | 140.96323 | 32122 ft | 380 kts | 238° |
| 2026-04-29 12:06 | 38.14271 | 140.90859 | 32132 ft | 367 kts | 251° |
| 2026-04-29 12:07 | 38.12919 | 140.84705 | 32137 ft | 361 kts | 263° |
| 2026-04-29 12:07 | 38.12367 | 140.78378 | 32130 ft | 361 kts | 265° |
| 2026-04-29 12:08 | 38.11849 | 140.72039 | 32132 ft | 361 kts | 264° |
| 2026-04-29 12:08 | 38.11287 | 140.65703 | 32137 ft | 361 kts | 264° |
| 2026-04-29 12:09 | 38.10702 | 140.59362 | 32115 ft | 362 kts | 264° |
| 2026-04-29 12:09 | 38.10105 | 140.53001 | 32120 ft | 363 kts | 264° |
| 2026-04-29 12:10 | 38.09507 | 140.46679 | 32115 ft | 363 kts | 264° |
| 2026-04-29 12:10 | 38.08897 | 140.40277 | 32112 ft | 364 kts | 264° |
| 2026-04-29 12:11 | 38.08291 | 140.33946 | 32125 ft | 364 kts | 264° |
| 2026-04-29 12:11 | 38.07677 | 140.27571 | 32116 ft | 363 kts | 264° |
| 2026-04-29 12:12 | 38.07060 | 140.21218 | 32117 ft | 363 kts | 264° |
| 2026-04-29 12:12 | 38.06439 | 140.14839 | 32127 ft | 365 kts | 264° |
| 2026-04-29 12:13 | 38.05813 | 140.08453 | 32122 ft | 365 kts | 263° |
| 2026-04-29 12:13 | 38.05184 | 140.02074 | 32111 ft | 365 kts | 263° |
| 2026-04-29 12:14 | 38.04551 | 139.95684 | 32121 ft | 366 kts | 263° |
| 2026-04-29 12:14 | 38.03911 | 139.89264 | 32133 ft | 366 kts | 264° |
| 2026-04-29 12:15 | 38.03271 | 139.82872 | 32139 ft | 365 kts | 263° |
| 2026-04-29 12:15 | 38.02604 | 139.76496 | 32143 ft | 364 kts | 263° |
| 2026-04-29 12:16 | 38.01936 | 139.70128 | 32147 ft | 364 kts | 263° |
| 2026-04-29 12:16 | 38.01278 | 139.63761 | 32161 ft | 365 kts | 264° |
| 2026-04-29 12:17 | 38.00628 | 139.57438 | 32173 ft | 365 kts | 264° |
| 2026-04-29 12:17 | 37.99972 | 139.51066 | 32172 ft | 364 kts | 264° |
| 2026-04-29 12:18 | 37.99314 | 139.44706 | 32178 ft | 366 kts | 263° |
| 2026-04-29 12:18 | 37.98646 | 139.38297 | 32188 ft | 367 kts | 263° |
| 2026-04-29 12:19 | 37.97974 | 139.31883 | 32184 ft | 367 kts | 263° |
| 2026-04-29 12:19 | 37.97300 | 139.25476 | 32183 ft | 367 kts | 263° |
| 2026-04-29 12:20 | 37.96621 | 139.19055 | 32182 ft | 368 kts | 263° |
| 2026-04-29 12:20 | 37.95698 | 139.12674 | 32179 ft | 370 kts | 255° |
| 2026-04-29 12:21 | 37.93288 | 139.06832 | 32182 ft | 381 kts | 242° |
| 2026-04-29 12:21 | 37.90169 | 139.01371 | 32180 ft | 383 kts | 241° |
| 2026-04-29 12:22 | 37.87045 | 138.95914 | 32182 ft | 382 kts | 242° |
| 2026-04-29 12:22 | 37.83971 | 138.90429 | 32185 ft | 382 kts | 242° |
| 2026-04-29 12:23 | 37.80917 | 138.84938 | 32183 ft | 382 kts | 242° |
| 2026-04-29 12:23 | 37.77863 | 138.79441 | 32175 ft | 382 kts | 242° |
| 2026-04-29 12:24 | 37.74806 | 138.73946 | 32174 ft | 382 kts | 242° |
| 2026-04-29 12:24 | 37.71746 | 138.68455 | 32173 ft | 382 kts | 242° |
| 2026-04-29 12:25 | 37.68683 | 138.62968 | 32168 ft | 382 kts | 242° |
| 2026-04-29 12:26 | 37.64086 | 138.54751 | 32166 ft | 382 kts | 242° |
| 2026-04-29 12:26 | 37.61015 | 138.49275 | 32161 ft | 382 kts | 242° |
| 2026-04-29 12:27 | 37.57902 | 138.43830 | 32164 ft | 383 kts | 241° |
| 2026-04-29 12:27 | 37.54796 | 138.38431 | 32175 ft | 383 kts | 241° |
| 2026-04-29 12:28 | 37.51674 | 138.32997 | 32181 ft | 383 kts | 242° |
| 2026-04-29 12:28 | 37.48552 | 138.27565 | 32185 ft | 383 kts | 242° |
| 2026-04-29 12:29 | 37.45429 | 138.22136 | 32182 ft | 383 kts | 241° |
| 2026-04-29 12:29 | 37.42306 | 138.16716 | 32173 ft | 383 kts | 241° |
| 2026-04-29 12:30 | 37.39176 | 138.11293 | 32174 ft | 383 kts | 241° |
| 2026-04-29 12:30 | 37.36044 | 138.05874 | 32174 ft | 383 kts | 241° |
| 2026-04-29 12:31 | 37.32908 | 138.00458 | 32174 ft | 384 kts | 241° |
| 2026-04-29 12:31 | 37.29762 | 137.95032 | 32174 ft | 385 kts | 241° |
| 2026-04-29 12:32 | 37.26605 | 137.89591 | 32172 ft | 385 kts | 241° |
| 2026-04-29 12:32 | 37.23564 | 137.84072 | 32157 ft | 385 kts | 242° |
| 2026-04-29 12:33 | 37.20581 | 137.78492 | 32154 ft | 385 kts | 242° |
| 2026-04-29 12:33 | 37.17492 | 137.72977 | 32157 ft | 387 kts | 241° |
| 2026-04-29 12:34 | 37.14327 | 137.67498 | 32155 ft | 388 kts | 241° |
| 2026-04-29 12:34 | 37.11150 | 137.62011 | 32155 ft | 389 kts | 240° |
| 2026-04-29 12:35 | 37.07966 | 137.56513 | 32157 ft | 390 kts | 240° |
| 2026-04-29 12:35 | 37.04783 | 137.51022 | 32155 ft | 390 kts | 240° |
| 2026-04-29 12:36 | 37.01535 | 137.45564 | 32156 ft | 392 kts | 239° |
| 2026-04-29 12:36 | 36.98264 | 137.40167 | 32156 ft | 392 kts | 239° |
| 2026-04-29 12:37 | 36.94967 | 137.34731 | 32155 ft | 393 kts | 239° |
| 2026-04-29 12:37 | 36.91666 | 137.29290 | 32156 ft | 393 kts | 239° |
| 2026-04-29 12:38 | 36.88361 | 137.23846 | 32157 ft | 394 kts | 239° |
| 2026-04-29 12:38 | 36.85589 | 137.19288 | 32155 ft | 394 kts | 239° |
| 2026-04-29 12:39 | 36.82280 | 137.13839 | 32161 ft | 394 kts | 240° |
| 2026-04-29 12:39 | 36.79083 | 137.08296 | 32157 ft | 393 kts | 241° |
| 2026-04-29 12:40 | 36.75939 | 137.02715 | 32154 ft | 393 kts | 241° |
| 2026-04-29 12:40 | 36.72793 | 136.97137 | 32156 ft | 394 kts | 241° |
| 2026-04-29 12:41 | 36.69630 | 136.91552 | 32155 ft | 394 kts | 240° |
| 2026-04-29 12:41 | 36.66472 | 136.85983 | 32155 ft | 394 kts | 240° |
| 2026-04-29 12:42 | 36.63308 | 136.80412 | 32156 ft | 393 kts | 240° |
| 2026-04-29 12:42 | 36.60147 | 136.74886 | 32150 ft | 395 kts | 240° |
| 2026-04-29 12:43 | 36.56887 | 136.69359 | 32144 ft | 397 kts | 239° |
| 2026-04-29 12:43 | 36.53604 | 136.63836 | 32155 ft | 397 kts | 239° |
| 2026-04-29 12:44 | 36.50324 | 136.58316 | 32156 ft | 397 kts | 239° |
| 2026-04-29 12:44 | 36.47035 | 136.52785 | 32155 ft | 398 kts | 239° |
| 2026-04-29 12:45 | 36.43737 | 136.47245 | 32155 ft | 399 kts | 239° |
| 2026-04-29 12:45 | 36.40447 | 136.41684 | 32156 ft | 399 kts | 241° |
| 2026-04-29 12:46 | 36.38130 | 136.35543 | 32157 ft | 392 kts | 254° |
| 2026-04-29 12:46 | 36.36585 | 136.29057 | 32157 ft | 392 kts | 256° |
| 2026-04-29 12:47 | 36.35073 | 136.22545 | 32155 ft | 393 kts | 255° |
| 2026-04-29 12:47 | 36.33508 | 136.16041 | 32154 ft | 393 kts | 255° |
| 2026-04-29 12:48 | 36.31916 | 136.09546 | 32157 ft | 394 kts | 255° |
| 2026-04-29 12:48 | 36.30323 | 136.03085 | 32156 ft | 395 kts | 255° |
| 2026-04-29 12:49 | 36.28714 | 135.96580 | 32156 ft | 395 kts | 254° |
| 2026-04-29 12:49 | 36.27090 | 135.90034 | 32151 ft | 395 kts | 254° |
| 2026-04-29 12:50 | 36.25487 | 135.83584 | 32147 ft | 395 kts | 254° |
| 2026-04-29 12:50 | 36.23867 | 135.77087 | 32145 ft | 395 kts | 254° |
| 2026-04-29 12:51 | 36.22244 | 135.70593 | 32145 ft | 395 kts | 254° |
| 2026-04-29 12:51 | 36.20619 | 135.64107 | 32146 ft | 394 kts | 254° |
| 2026-04-29 12:52 | 36.18985 | 135.57630 | 32148 ft | 394 kts | 254° |
| 2026-04-29 12:52 | 36.17330 | 135.51169 | 32146 ft | 394 kts | 254° |
| 2026-04-29 12:53 | 36.15678 | 135.44700 | 32138 ft | 394 kts | 254° |
| 2026-04-29 12:53 | 36.14031 | 135.38233 | 32136 ft | 393 kts | 254° |
| 2026-04-29 12:54 | 36.12387 | 135.31781 | 32144 ft | 393 kts | 254° |
| 2026-04-29 12:54 | 36.10739 | 135.25335 | 32134 ft | 393 kts | 254° |
| 2026-04-29 12:55 | 36.09089 | 135.18892 | 32134 ft | 393 kts | 254° |
| 2026-04-29 12:55 | 36.07437 | 135.12458 | 32140 ft | 393 kts | 254° |
| 2026-04-29 12:56 | 36.05779 | 135.06019 | 32139 ft | 393 kts | 254° |
| 2026-04-29 12:56 | 36.04117 | 134.99581 | 32137 ft | 393 kts | 253° |
| 2026-04-29 12:57 | 36.02452 | 134.93147 | 32136 ft | 393 kts | 253° |
| 2026-04-29 12:57 | 36.00784 | 134.86716 | 32138 ft | 394 kts | 253° |
| 2026-04-29 12:58 | 35.99109 | 134.80275 | 32134 ft | 394 kts | 253° |
| 2026-04-29 12:58 | 35.97413 | 134.73804 | 32129 ft | 398 kts | 253° |
| 2026-04-29 12:59 | 35.95677 | 134.67300 | 32140 ft | 400 kts | 253° |
| 2026-04-29 12:59 | 35.93965 | 134.60769 | 32132 ft | 399 kts | 253° |
| 2026-04-29 13:00 | 35.92269 | 134.54291 | 32146 ft | 399 kts | 253° |
| 2026-04-29 13:00 | 35.90551 | 134.47779 | 32148 ft | 399 kts | 253° |
| 2026-04-29 13:01 | 35.88828 | 134.41270 | 32147 ft | 399 kts | 253° |
| 2026-04-29 13:01 | 35.87105 | 134.34764 | 32145 ft | 399 kts | 253° |
| 2026-04-29 13:02 | 35.85382 | 134.28268 | 32149 ft | 399 kts | 253° |
| 2026-04-29 13:02 | 35.83656 | 134.21777 | 32144 ft | 398 kts | 252° |
| 2026-04-29 13:03 | 35.81929 | 134.15297 | 32145 ft | 398 kts | 252° |
| 2026-04-29 13:03 | 35.80198 | 134.08818 | 32159 ft | 398 kts | 252° |
| 2026-04-29 13:04 | 35.78463 | 134.02343 | 32155 ft | 398 kts | 252° |
| 2026-04-29 13:04 | 35.76726 | 133.95871 | 32156 ft | 398 kts | 252° |
| 2026-04-29 13:05 | 35.74984 | 133.89402 | 32156 ft | 398 kts | 252° |
| 2026-04-29 13:05 | 35.73241 | 133.82941 | 32155 ft | 399 kts | 252° |
| 2026-04-29 13:06 | 35.71501 | 133.76506 | 32155 ft | 399 kts | 252° |
| 2026-04-29 13:06 | 35.69745 | 133.70029 | 32156 ft | 399 kts | 252° |
| 2026-04-29 13:07 | 35.67981 | 133.63556 | 32156 ft | 399 kts | 252° |
| 2026-04-29 13:07 | 35.66201 | 133.57088 | 32155 ft | 400 kts | 252° |
| 2026-04-29 13:08 | 35.64429 | 133.50612 | 32156 ft | 400 kts | 252° |
| 2026-04-29 13:08 | 35.62659 | 133.44127 | 32157 ft | 400 kts | 252° |
| 2026-04-29 13:09 | 35.60886 | 133.37635 | 32156 ft | 401 kts | 252° |
| 2026-04-29 13:09 | 35.59106 | 133.31135 | 32156 ft | 401 kts | 252° |
| 2026-04-29 13:10 | 35.57323 | 133.24637 | 32157 ft | 401 kts | 252° |
| 2026-04-29 13:10 | 35.55533 | 133.18134 | 32158 ft | 402 kts | 252° |
| 2026-04-29 13:11 | 35.53691 | 133.11670 | 32158 ft | 402 kts | 248° |
| 2026-04-29 13:11 | 35.50712 | 133.05795 | 32152 ft | 409 kts | 237° |
| 2026-04-29 13:12 | 35.47179 | 133.00315 | 32156 ft | 409 kts | 236° |
| 2026-04-29 13:12 | 35.43680 | 132.94882 | 32157 ft | 408 kts | 236° |
| 2026-04-29 13:13 | 35.40200 | 132.89373 | 32155 ft | 409 kts | 236° |
| 2026-04-29 13:13 | 35.36732 | 132.83845 | 32155 ft | 409 kts | 236° |
| 2026-04-29 13:14 | 35.33267 | 132.78324 | 32155 ft | 409 kts | 236° |
| 2026-04-29 13:14 | 35.29795 | 132.72799 | 32156 ft | 409 kts | 236° |
| 2026-04-29 13:15 | 35.26320 | 132.67278 | 32157 ft | 409 kts | 236° |
| 2026-04-29 13:15 | 35.22841 | 132.61762 | 32155 ft | 409 kts | 236° |
| 2026-04-29 13:16 | 35.19360 | 132.56250 | 32144 ft | 409 kts | 236° |
| 2026-04-29 13:16 | 35.15874 | 132.50738 | 32148 ft | 410 kts | 236° |
| 2026-04-29 13:17 | 35.12386 | 132.45233 | 32137 ft | 410 kts | 236° |
| 2026-04-29 13:17 | 35.08891 | 132.39724 | 32133 ft | 410 kts | 236° |
| 2026-04-29 13:18 | 35.05394 | 132.34222 | 32139 ft | 410 kts | 236° |
| 2026-04-29 13:18 | 35.01892 | 132.28727 | 32122 ft | 410 kts | 236° |
| 2026-04-29 13:19 | 34.98365 | 132.23237 | 32126 ft | 411 kts | 236° |
| 2026-04-29 13:19 | 34.94842 | 132.17743 | 32129 ft | 411 kts | 236° |
| 2026-04-29 13:20 | 34.91328 | 132.12255 | 32128 ft | 411 kts | 236° |
| 2026-04-29 13:20 | 34.87809 | 132.06762 | 32126 ft | 411 kts | 236° |
| 2026-04-29 13:21 | 34.84282 | 132.01263 | 32111 ft | 413 kts | 236° |
| 2026-04-29 13:21 | 34.80740 | 131.95760 | 32104 ft | 413 kts | 236° |
| 2026-04-29 13:22 | 34.77184 | 131.90277 | 32101 ft | 413 kts | 236° |
| 2026-04-29 13:22 | 34.73629 | 131.84802 | 32100 ft | 412 kts | 235° |
| 2026-04-29 13:23 | 34.70074 | 131.79328 | 32099 ft | 412 kts | 235° |
| 2026-04-29 13:23 | 34.66519 | 131.73858 | 32100 ft | 413 kts | 235° |
| 2026-04-29 13:24 | 34.62952 | 131.68380 | 32110 ft | 413 kts | 235° |
| 2026-04-29 13:24 | 34.59405 | 131.62941 | 32104 ft | 414 kts | 235° |
| 2026-04-29 13:25 | 34.55830 | 131.57467 | 32102 ft | 414 kts | 235° |
| 2026-04-29 13:25 | 34.50461 | 131.49264 | 32102 ft | 414 kts | 235° |
| 2026-04-29 13:26 | 34.46886 | 131.43810 | 32100 ft | 414 kts | 235° |
| 2026-04-29 13:26 | 34.43298 | 131.38357 | 32118 ft | 414 kts | 235° |
| 2026-04-29 13:27 | 34.39714 | 131.32903 | 32115 ft | 414 kts | 235° |
| 2026-04-29 13:27 | 34.36133 | 131.27448 | 32125 ft | 414 kts | 235° |
| 2026-04-29 13:28 | 34.33136 | 131.22887 | 32120 ft | 413 kts | 235° |
| 2026-04-29 13:28 | 34.29580 | 131.17481 | 32131 ft | 413 kts | 235° |
| 2026-04-29 13:29 | 34.26002 | 131.12049 | 32121 ft | 412 kts | 235° |
| 2026-04-29 13:29 | 34.22425 | 131.06628 | 32120 ft | 412 kts | 235° |
| 2026-04-29 13:30 | 34.18639 | 131.01398 | 32131 ft | 415 kts | 231° |
| 2026-04-29 13:30 | 34.14599 | 130.96408 | 32122 ft | 416 kts | 230° |
| 2026-04-29 13:31 | 34.10539 | 130.91437 | 32127 ft | 416 kts | 230° |
| 2026-04-29 13:31 | 34.06489 | 130.86450 | 32128 ft | 416 kts | 230° |
| 2026-04-29 13:32 | 34.02448 | 130.81463 | 32122 ft | 416 kts | 230° |
| 2026-04-29 13:32 | 33.98409 | 130.76482 | 32136 ft | 415 kts | 230° |
| 2026-04-29 13:33 | 33.94346 | 130.71476 | 32127 ft | 419 kts | 230° |
| 2026-04-29 13:33 | 33.90263 | 130.66456 | 32136 ft | 420 kts | 230° |
| 2026-04-29 13:34 | 33.86183 | 130.61449 | 32127 ft | 419 kts | 230° |
| 2026-04-29 13:34 | 33.82101 | 130.56445 | 32131 ft | 419 kts | 230° |
| 2026-04-29 13:35 | 33.78023 | 130.51452 | 32122 ft | 418 kts | 230° |
| 2026-04-29 13:35 | 33.73972 | 130.46500 | 32124 ft | 418 kts | 230° |
| 2026-04-29 13:36 | 33.69891 | 130.41517 | 32130 ft | 418 kts | 229° |
| 2026-04-29 13:36 | 33.65856 | 130.36492 | 32128 ft | 417 kts | 232° |
| 2026-04-29 13:37 | 33.62262 | 130.31065 | 32130 ft | 415 kts | 236° |
| 2026-04-29 13:37 | 33.58823 | 130.25515 | 32124 ft | 415 kts | 236° |
| 2026-04-29 13:38 | 33.55374 | 130.19968 | 32126 ft | 415 kts | 236° |
| 2026-04-29 13:38 | 33.51906 | 130.14439 | 32130 ft | 415 kts | 236° |
| 2026-04-29 13:39 | 33.48427 | 130.08914 | 32126 ft | 415 kts | 236° |
| 2026-04-29 13:39 | 33.44943 | 130.03391 | 32134 ft | 416 kts | 236° |
| 2026-04-29 13:40 | 33.41455 | 129.97872 | 32124 ft | 416 kts | 236° |
| 2026-04-29 13:40 | 33.37960 | 129.92348 | 32136 ft | 416 kts | 236° |
| 2026-04-29 13:41 | 33.34462 | 129.86829 | 32132 ft | 417 kts | 236° |
| 2026-04-29 13:41 | 33.30958 | 129.81309 | 32126 ft | 417 kts | 236° |
| 2026-04-29 13:42 | 33.27445 | 129.75781 | 32125 ft | 418 kts | 235° |
| 2026-04-29 13:42 | 33.23926 | 129.70254 | 32128 ft | 418 kts | 235° |
| 2026-04-29 13:43 | 33.20454 | 129.64683 | 32124 ft | 417 kts | 240° |
| 2026-04-29 13:43 | 33.17911 | 129.58490 | 32124 ft | 416 kts | 248° |
| 2026-04-29 13:44 | 33.15810 | 129.52102 | 32122 ft | 416 kts | 249° |
| 2026-04-29 13:44 | 33.13691 | 129.45672 | 32128 ft | 417 kts | 249° |
| 2026-04-29 13:45 | 33.11526 | 129.39255 | 32125 ft | 417 kts | 248° |
| 2026-04-29 13:45 | 33.09340 | 129.32843 | 32128 ft | 417 kts | 248° |
| 2026-04-29 13:46 | 33.07147 | 129.26434 | 32118 ft | 417 kts | 248° |
| 2026-04-29 13:46 | 33.04948 | 129.20021 | 32126 ft | 418 kts | 248° |
| 2026-04-29 13:47 | 33.02745 | 129.13606 | 32114 ft | 418 kts | 248° |
| 2026-04-29 13:47 | 33.00538 | 129.07194 | 32115 ft | 418 kts | 248° |
| 2026-04-29 13:48 | 32.98328 | 129.00784 | 32119 ft | 419 kts | 248° |
| 2026-04-29 13:48 | 32.96111 | 128.94370 | 32118 ft | 419 kts | 248° |
| 2026-04-29 13:49 | 32.93906 | 128.88000 | 32112 ft | 419 kts | 248° |
| 2026-04-29 13:49 | 32.91680 | 128.81583 | 32117 ft | 419 kts | 248° |
| 2026-04-29 13:50 | 32.89453 | 128.75175 | 32100 ft | 419 kts | 248° |
| 2026-04-29 13:50 | 32.87203 | 128.68776 | 32100 ft | 419 kts | 247° |
| 2026-04-29 13:51 | 32.84940 | 128.62379 | 32101 ft | 420 kts | 247° |
| 2026-04-29 13:51 | 32.82681 | 128.55971 | 32100 ft | 420 kts | 248° |
| 2026-04-29 13:52 | 32.80424 | 128.49561 | 32101 ft | 420 kts | 247° |
| 2026-04-29 13:52 | 32.78166 | 128.43158 | 32113 ft | 420 kts | 247° |
| 2026-04-29 13:53 | 32.75899 | 128.36742 | 32113 ft | 421 kts | 247° |
| 2026-04-29 13:53 | 32.73630 | 128.30332 | 32105 ft | 421 kts | 247° |
| 2026-04-29 13:54 | 32.71352 | 128.23920 | 32108 ft | 422 kts | 247° |
| 2026-04-29 13:54 | 32.69071 | 128.17502 | 32104 ft | 422 kts | 247° |
| 2026-04-29 13:55 | 32.66790 | 128.11075 | 32113 ft | 422 kts | 247° |
| 2026-04-29 13:55 | 32.64509 | 128.04652 | 32110 ft | 423 kts | 247° |
| 2026-04-29 13:56 | 32.62221 | 127.98220 | 32110 ft | 423 kts | 247° |
| 2026-04-29 13:56 | 32.59932 | 127.91796 | 32101 ft | 422 kts | 247° |
| 2026-04-29 13:57 | 32.57640 | 127.85380 | 32115 ft | 422 kts | 247° |
| 2026-04-29 13:57 | 32.55344 | 127.78964 | 32113 ft | 423 kts | 247° |
| 2026-04-29 13:58 | 32.53043 | 127.72544 | 32111 ft | 423 kts | 246° |
| 2026-04-29 13:58 | 32.50753 | 127.66169 | 32127 ft | 423 kts | 246° |
| 2026-04-29 13:59 | 32.48444 | 127.59754 | 32121 ft | 423 kts | 246° |
| 2026-04-29 13:59 | 32.46131 | 127.53340 | 32117 ft | 423 kts | 246° |
| 2026-04-29 14:00 | 32.43816 | 127.46931 | 32133 ft | 423 kts | 246° |
| 2026-04-29 14:00 | 32.41502 | 127.40540 | 32122 ft | 422 kts | 246° |
| 2026-04-29 14:01 | 32.39180 | 127.34161 | 32136 ft | 422 kts | 246° |
| 2026-04-29 14:01 | 32.36839 | 127.27785 | 32135 ft | 422 kts | 246° |
| 2026-04-29 14:02 | 32.34508 | 127.21411 | 32125 ft | 422 kts | 246° |
| 2026-04-29 14:02 | 32.32181 | 127.15037 | 32129 ft | 422 kts | 246° |
| 2026-04-29 14:03 | 32.29856 | 127.08674 | 32127 ft | 421 kts | 246° |
| 2026-04-29 14:03 | 32.27594 | 127.02277 | 32138 ft | 423 kts | 250° |
| 2026-04-29 14:04 | 32.25949 | 126.95602 | 32143 ft | 423 kts | 253° |
| 2026-04-29 14:04 | 32.24522 | 126.88857 | 32135 ft | 423 kts | 254° |
| 2026-04-29 14:05 | 32.23081 | 126.82118 | 32136 ft | 423 kts | 253° |
| 2026-04-29 14:05 | 32.21611 | 126.75385 | 32138 ft | 423 kts | 253° |
| 2026-04-29 14:06 | 32.20127 | 126.68646 | 32140 ft | 424 kts | 253° |
| 2026-04-29 14:06 | 32.18647 | 126.61901 | 32137 ft | 424 kts | 253° |
| 2026-04-29 14:07 | 32.17188 | 126.55163 | 32134 ft | 424 kts | 253° |
| 2026-04-29 14:07 | 32.15728 | 126.48408 | 32144 ft | 425 kts | 253° |
| 2026-04-29 14:08 | 32.14276 | 126.41700 | 32154 ft | 425 kts | 253° |
| 2026-04-29 14:08 | 32.12808 | 126.34943 | 32156 ft | 426 kts | 253° |
| 2026-04-29 14:09 | 32.11334 | 126.28176 | 32157 ft | 426 kts | 253° |
| 2026-04-29 14:09 | 32.09858 | 126.21417 | 32157 ft | 426 kts | 253° |
| 2026-04-29 14:10 | 32.08378 | 126.14660 | 32155 ft | 426 kts | 253° |
| 2026-04-29 14:10 | 32.06892 | 126.07898 | 32155 ft | 426 kts | 253° |
| 2026-04-29 14:11 | 32.05417 | 126.01138 | 32156 ft | 426 kts | 253° |
| 2026-04-29 14:11 | 32.03957 | 125.94367 | 32156 ft | 426 kts | 253° |
| 2026-04-29 14:12 | 32.02502 | 125.87601 | 32155 ft | 426 kts | 253° |
| 2026-04-29 14:12 | 32.01046 | 125.80837 | 32157 ft | 426 kts | 253° |
| 2026-04-29 14:13 | 31.99565 | 125.74082 | 32155 ft | 426 kts | 253° |
| 2026-04-29 14:13 | 31.98065 | 125.67329 | 32157 ft | 426 kts | 253° |
| 2026-04-29 14:14 | 31.96561 | 125.60568 | 32155 ft | 427 kts | 253° |
| 2026-04-29 14:14 | 31.95056 | 125.53808 | 32155 ft | 427 kts | 253° |
| 2026-04-29 14:15 | 31.93560 | 125.47100 | 32157 ft | 427 kts | 253° |
| 2026-04-29 14:15 | 31.92048 | 125.40342 | 32156 ft | 427 kts | 253° |
| 2026-04-29 14:16 | 31.90534 | 125.33592 | 32155 ft | 426 kts | 253° |
| 2026-04-29 14:16 | 31.89017 | 125.26847 | 32157 ft | 426 kts | 253° |
| 2026-04-29 14:17 | 31.87496 | 125.20101 | 32156 ft | 427 kts | 253° |
| 2026-04-29 14:17 | 31.85971 | 125.13357 | 32157 ft | 427 kts | 252° |
| 2026-04-29 14:18 | 31.84444 | 125.06620 | 32155 ft | 426 kts | 252° |
| 2026-04-29 14:18 | 31.82918 | 124.99891 | 32164 ft | 426 kts | 253° |
| 2026-04-29 14:19 | 31.81429 | 124.93142 | 32165 ft | 426 kts | 253° |
| 2026-04-29 14:19 | 31.79965 | 124.86391 | 32166 ft | 426 kts | 253° |
| 2026-04-29 14:20 | 31.78751 | 124.80782 | 32164 ft | 426 kts | 253° |
| 2026-04-29 14:20 | 31.77050 | 124.72943 | 32165 ft | 426 kts | 253° |
| 2026-04-29 14:21 | 31.75583 | 124.66208 | 32166 ft | 425 kts | 253° |
| 2026-04-29 14:21 | 31.74353 | 124.60572 | 32166 ft | 425 kts | 252° |
| 2026-04-29 14:22 | 31.72882 | 124.53853 | 32165 ft | 424 kts | 252° |
| 2026-04-29 14:22 | 31.71408 | 124.47139 | 32165 ft | 424 kts | 252° |
| 2026-04-29 14:23 | 31.69933 | 124.40437 | 32166 ft | 424 kts | 252° |
| 2026-04-29 14:23 | 31.68464 | 124.33784 | 32165 ft | 423 kts | 252° |
| 2026-04-29 14:24 | 31.66985 | 124.27100 | 32164 ft | 423 kts | 252° |
| 2026-04-29 14:24 | 31.65504 | 124.20424 | 32165 ft | 423 kts | 252° |
| 2026-04-29 14:25 | 31.64019 | 124.13750 | 32172 ft | 423 kts | 252° |
| 2026-04-29 14:25 | 31.62529 | 124.07074 | 32175 ft | 423 kts | 252° |
| 2026-04-29 14:26 | 31.61019 | 124.00409 | 32174 ft | 423 kts | 252° |
| 2026-04-29 14:26 | 31.59540 | 123.93739 | 32175 ft | 422 kts | 252° |
| 2026-04-29 14:27 | 31.58081 | 123.87065 | 32174 ft | 422 kts | 252° |
| 2026-04-29 14:28 | 31.55889 | 123.77048 | 32315 ft | 424 kts | 252° |
| 2026-04-29 14:28 | 31.54421 | 123.70362 | 32324 ft | 423 kts | 252° |
| 2026-04-29 14:29 | 31.52949 | 123.63678 | 32327 ft | 424 kts | 252° |
| 2026-04-29 14:29 | 31.51470 | 123.56983 | 32323 ft | 424 kts | 252° |
| 2026-04-29 14:30 | 31.50000 | 123.50288 | 32326 ft | 425 kts | 253° |
| 2026-04-29 14:30 | 31.48665 | 123.43535 | 32327 ft | 426 kts | 254° |
| 2026-04-29 14:31 | 31.47388 | 123.36759 | 32327 ft | 426 kts | 254° |
| 2026-04-29 14:31 | 31.46110 | 123.29983 | 32331 ft | 426 kts | 254° |
| 2026-04-29 14:32 | 31.44821 | 123.23204 | 32335 ft | 427 kts | 254° |
| 2026-04-29 14:32 | 31.43525 | 123.16414 | 32337 ft | 427 kts | 254° |
| 2026-04-29 14:33 | 31.42224 | 123.09623 | 32337 ft | 427 kts | 254° |
| 2026-04-29 14:33 | 31.40921 | 123.02841 | 32332 ft | 427 kts | 254° |
| 2026-04-29 14:34 | 31.39613 | 122.96058 | 32336 ft | 427 kts | 254° |
| 2026-04-29 14:34 | 31.38302 | 122.89279 | 32335 ft | 427 kts | 254° |
| 2026-04-29 14:35 | 31.36997 | 122.82546 | 32334 ft | 427 kts | 253° |
| 2026-04-29 14:35 | 31.35678 | 122.75761 | 32333 ft | 427 kts | 253° |
| 2026-04-29 14:36 | 31.34372 | 122.68985 | 32333 ft | 427 kts | 253° |
| 2026-04-29 14:36 | 31.33076 | 122.62212 | 32335 ft | 427 kts | 253° |
| 2026-04-29 14:37 | 31.31782 | 122.55440 | 32337 ft | 427 kts | 253° |
| 2026-04-29 14:37 | 31.30485 | 122.48670 | 32336 ft | 427 kts | 253° |
| 2026-04-29 14:38 | 31.29192 | 122.41905 | 32336 ft | 427 kts | 254° |
| 2026-04-29 14:38 | 31.27916 | 122.35125 | 32338 ft | 427 kts | 254° |
| 2026-04-29 14:39 | 31.26645 | 122.28345 | 32332 ft | 427 kts | 254° |
| 2026-04-29 14:39 | 31.25372 | 122.21565 | 32335 ft | 427 kts | 254° |
| 2026-04-29 14:40 | 31.24095 | 122.14787 | 32333 ft | 427 kts | 253° |
| 2026-04-29 14:40 | 31.22814 | 122.08012 | 32337 ft | 427 kts | 253° |
| 2026-04-29 14:41 | 31.21529 | 122.01239 | 32334 ft | 427 kts | 253° |
| 2026-04-29 14:41 | 31.20243 | 121.94475 | 32334 ft | 425 kts | 253° |
| 2026-04-29 14:42 | 31.18960 | 121.87747 | 32337 ft | 424 kts | 253° |
| 2026-04-29 14:42 | 31.17681 | 121.81068 | 32336 ft | 424 kts | 253° |
| 2026-04-29 14:43 | 31.16588 | 121.74288 | 32337 ft | 426 kts | 257° |
| 2026-04-29 14:43 | 31.15831 | 121.67411 | 32338 ft | 427 kts | 258° |
| 2026-04-29 14:44 | 31.15120 | 121.60523 | 32341 ft | 427 kts | 258° |
| 2026-04-29 14:44 | 31.14393 | 121.53651 | 32344 ft | 426 kts | 258° |
| 2026-04-29 14:45 | 31.13653 | 121.46794 | 32355 ft | 426 kts | 258° |
| 2026-04-29 14:45 | 31.12906 | 121.39943 | 32354 ft | 426 kts | 258° |
| 2026-04-29 14:46 | 31.11973 | 121.33142 | 32364 ft | 422 kts | 252° |
| 2026-04-29 14:46 | 31.10357 | 121.26589 | 32365 ft | 419 kts | 249° |
| 2026-04-29 14:47 | 31.08607 | 121.20100 | 32366 ft | 419 kts | 249° |
| 2026-04-29 14:47 | 31.06903 | 121.13595 | 32365 ft | 419 kts | 250° |
| 2026-04-29 14:48 | 31.05294 | 121.07069 | 32364 ft | 419 kts | 251° |
| 2026-04-29 14:48 | 31.03705 | 121.00531 | 32358 ft | 419 kts | 251° |
| 2026-04-29 14:49 | 31.02111 | 120.93993 | 32367 ft | 419 kts | 250° |
| 2026-04-29 14:49 | 31.00512 | 120.87459 | 32367 ft | 419 kts | 250° |
| 2026-04-29 14:50 | 30.98912 | 120.80941 | 32363 ft | 418 kts | 250° |
| 2026-04-29 14:50 | 30.97308 | 120.74421 | 32373 ft | 418 kts | 250° |
| 2026-04-29 14:51 | 30.95710 | 120.67903 | 32373 ft | 418 kts | 250° |
| 2026-04-29 14:51 | 30.94117 | 120.61381 | 32373 ft | 418 kts | 250° |
| 2026-04-29 14:52 | 30.92527 | 120.54874 | 32372 ft | 417 kts | 250° |
| 2026-04-29 14:52 | 30.90831 | 120.48424 | 32370 ft | 415 kts | 246° |
| 2026-04-29 14:53 | 30.88050 | 120.42659 | 32369 ft | 411 kts | 231° |
| 2026-04-29 14:53 | 30.83849 | 120.38149 | 32373 ft | 414 kts | 218° |
| 2026-04-29 14:54 | 30.79102 | 120.34341 | 32379 ft | 415 kts | 217° |
| 2026-04-29 14:54 | 30.74348 | 120.30543 | 32382 ft | 415 kts | 217° |
| 2026-04-29 14:55 | 30.69634 | 120.26680 | 32381 ft | 415 kts | 218° |
| 2026-04-29 14:55 | 30.64928 | 120.22785 | 32381 ft | 416 kts | 218° |
| 2026-04-29 14:56 | 30.60220 | 120.18885 | 32382 ft | 416 kts | 218° |
| 2026-04-29 14:56 | 30.55506 | 120.14985 | 32382 ft | 416 kts | 218° |
| 2026-04-29 14:57 | 30.50789 | 120.11088 | 32390 ft | 416 kts | 218° |
| 2026-04-29 14:57 | 30.46053 | 120.07208 | 32390 ft | 418 kts | 217° |
| 2026-04-29 14:58 | 30.41079 | 120.03690 | 32390 ft | 420 kts | 213° |
| 2026-04-29 14:58 | 30.36000 | 120.00327 | 32390 ft | 420 kts | 213° |
| 2026-04-29 14:59 | 30.30936 | 119.96969 | 32390 ft | 419 kts | 214° |
| 2026-04-29 14:59 | 30.25885 | 119.93599 | 32391 ft | 419 kts | 214° |
| 2026-04-29 15:00 | 30.20872 | 119.90250 | 32391 ft | 419 kts | 214° |
| 2026-04-29 15:00 | 30.15787 | 119.86854 | 32392 ft | 419 kts | 214° |
| 2026-04-29 15:01 | 30.10798 | 119.83568 | 32387 ft | 403 kts | 214° |
| 2026-04-29 15:01 | 30.05980 | 119.80385 | 32386 ft | 398 kts | 215° |
| 2026-04-29 15:02 | 30.01244 | 119.77166 | 32390 ft | 398 kts | 215° |
| 2026-04-29 15:02 | 29.96470 | 119.73918 | 32382 ft | 399 kts | 215° |
| 2026-04-29 15:03 | 29.91683 | 119.70678 | 32383 ft | 399 kts | 215° |
| 2026-04-29 15:03 | 29.86894 | 119.67446 | 32384 ft | 399 kts | 215° |
| 2026-04-29 15:04 | 29.82185 | 119.64078 | 32382 ft | 397 kts | 218° |
| 2026-04-29 15:04 | 29.77621 | 119.60484 | 32378 ft | 397 kts | 219° |
| 2026-04-29 15:05 | 29.73065 | 119.56859 | 32382 ft | 399 kts | 218° |
| 2026-04-29 15:05 | 29.68501 | 119.53245 | 32387 ft | 398 kts | 218° |
| 2026-04-29 15:06 | 29.63942 | 119.49623 | 32383 ft | 398 kts | 220° |
| 2026-04-29 15:06 | 29.59946 | 119.45278 | 32379 ft | 396 kts | 229° |
| 2026-04-29 15:07 | 29.56296 | 119.40536 | 32381 ft | 396 kts | 230° |
| 2026-04-29 15:07 | 29.52641 | 119.35779 | 32382 ft | 398 kts | 230° |
| 2026-04-29 15:08 | 29.48948 | 119.31047 | 32373 ft | 398 kts | 229° |
| 2026-04-29 15:08 | 29.45262 | 119.26350 | 32374 ft | 399 kts | 229° |
| 2026-04-29 15:09 | 29.41537 | 119.21618 | 32375 ft | 400 kts | 229° |
| 2026-04-29 15:09 | 29.37806 | 119.16881 | 32372 ft | 401 kts | 229° |
| 2026-04-29 15:10 | 29.34061 | 119.12143 | 32372 ft | 401 kts | 229° |
| 2026-04-29 15:10 | 29.30310 | 119.07410 | 32369 ft | 401 kts | 229° |
| 2026-04-29 15:11 | 29.27163 | 119.03440 | 32363 ft | 402 kts | 229° |
| 2026-04-29 15:11 | 29.23406 | 118.98706 | 32363 ft | 401 kts | 229° |
| 2026-04-29 15:12 | 29.19650 | 118.93984 | 32370 ft | 401 kts | 229° |
| 2026-04-29 15:12 | 29.15889 | 118.89261 | 32368 ft | 402 kts | 229° |
| 2026-04-29 15:13 | 29.12146 | 118.84563 | 32359 ft | 402 kts | 229° |
| 2026-04-29 15:13 | 29.08371 | 118.79829 | 32361 ft | 403 kts | 229° |
| 2026-04-29 15:14 | 29.04591 | 118.75094 | 32351 ft | 405 kts | 229° |
| 2026-04-29 15:14 | 29.00794 | 118.70343 | 32352 ft | 405 kts | 229° |
| 2026-04-29 15:15 | 28.97001 | 118.65605 | 32342 ft | 404 kts | 229° |
| 2026-04-29 15:15 | 28.93210 | 118.60875 | 32348 ft | 404 kts | 229° |
| 2026-04-29 15:16 | 28.89412 | 118.56140 | 32347 ft | 405 kts | 229° |
| 2026-04-29 15:16 | 28.85606 | 118.51401 | 32340 ft | 405 kts | 229° |
| 2026-04-29 15:17 | 28.81797 | 118.46664 | 32343 ft | 406 kts | 229° |
| 2026-04-29 15:17 | 28.77980 | 118.41923 | 32340 ft | 406 kts | 229° |
| 2026-04-29 15:18 | 28.74156 | 118.37179 | 32331 ft | 406 kts | 229° |
| 2026-04-29 15:18 | 28.70334 | 118.32443 | 32338 ft | 406 kts | 229° |
| 2026-04-29 15:19 | 28.66503 | 118.27717 | 32331 ft | 406 kts | 229° |
| 2026-04-29 15:19 | 28.62665 | 118.22994 | 32329 ft | 407 kts | 229° |
| 2026-04-29 15:20 | 28.58824 | 118.18259 | 32325 ft | 407 kts | 229° |
| 2026-04-29 15:20 | 28.54984 | 118.13524 | 32325 ft | 407 kts | 229° |
| 2026-04-29 15:21 | 28.51143 | 118.08792 | 32326 ft | 407 kts | 229° |
| 2026-04-29 15:21 | 28.47300 | 118.04063 | 32329 ft | 407 kts | 229° |
| 2026-04-29 15:22 | 28.43457 | 117.99338 | 32348 ft | 407 kts | 229° |
| 2026-04-29 15:22 | 28.39575 | 117.94656 | 32358 ft | 408 kts | 228° |
| 2026-04-29 15:23 | 28.35638 | 117.90009 | 32353 ft | 408 kts | 228° |
| 2026-04-29 15:23 | 28.31725 | 117.85398 | 32357 ft | 408 kts | 228° |
| 2026-04-29 15:24 | 28.27759 | 117.80722 | 32358 ft | 409 kts | 228° |
| 2026-04-29 15:24 | 28.23841 | 117.76105 | 32357 ft | 409 kts | 228° |
| 2026-04-29 15:25 | 28.19874 | 117.71434 | 32326 ft | 409 kts | 228° |
| 2026-04-29 15:25 | 28.15959 | 117.66830 | 32327 ft | 408 kts | 228° |
| 2026-04-29 15:26 | 28.12021 | 117.62203 | 32330 ft | 407 kts | 228° |
| 2026-04-29 15:26 | 28.08082 | 117.57582 | 32327 ft | 408 kts | 228° |
| 2026-04-29 15:27 | 28.04134 | 117.52962 | 32324 ft | 408 kts | 227° |
| 2026-04-29 15:27 | 28.00178 | 117.48341 | 32321 ft | 409 kts | 227° |
| 2026-04-29 15:28 | 27.96219 | 117.43713 | 32313 ft | 411 kts | 227° |
| 2026-04-29 15:28 | 27.92235 | 117.39057 | 32312 ft | 412 kts | 228° |
| 2026-04-29 15:29 | 27.88242 | 117.34396 | 32317 ft | 413 kts | 228° |
| 2026-04-29 15:30 | 27.80229 | 117.25057 | 32318 ft | 415 kts | 227° |
| 2026-04-29 15:30 | 27.76201 | 117.20371 | 32313 ft | 417 kts | 228° |
| 2026-04-29 15:31 | 27.72162 | 117.15677 | 32311 ft | 416 kts | 227° |
| 2026-04-29 15:31 | 27.68132 | 117.10999 | 32318 ft | 415 kts | 228° |
| 2026-04-29 15:32 | 27.64110 | 117.06337 | 32316 ft | 414 kts | 227° |
| 2026-04-29 15:32 | 27.60085 | 117.01674 | 32309 ft | 415 kts | 227° |
| 2026-04-29 15:33 | 27.56049 | 116.97006 | 32306 ft | 416 kts | 227° |
| 2026-04-29 15:33 | 27.52008 | 116.92333 | 32312 ft | 416 kts | 228° |
| 2026-04-29 15:34 | 27.47975 | 116.87643 | 32307 ft | 417 kts | 228° |
| 2026-04-29 15:34 | 27.43949 | 116.82936 | 32309 ft | 417 kts | 228° |
| 2026-04-29 15:35 | 27.39950 | 116.78260 | 32295 ft | 417 kts | 228° |
| 2026-04-29 15:35 | 27.35923 | 116.73554 | 32282 ft | 418 kts | 228° |
| 2026-04-29 15:36 | 27.31886 | 116.68842 | 32280 ft | 418 kts | 228° |
| 2026-04-29 15:36 | 27.27814 | 116.64096 | 32287 ft | 419 kts | 228° |
| 2026-04-29 15:37 | 27.23795 | 116.59416 | 32288 ft | 418 kts | 228° |
| 2026-04-29 15:37 | 27.19770 | 116.54694 | 32281 ft | 418 kts | 229° |
| 2026-04-29 15:38 | 27.15808 | 116.49915 | 32289 ft | 418 kts | 229° |
| 2026-04-29 15:38 | 27.11849 | 116.45111 | 32289 ft | 419 kts | 229° |
| 2026-04-29 15:39 | 27.07888 | 116.40311 | 32288 ft | 419 kts | 229° |
| 2026-04-29 15:39 | 27.03922 | 116.35517 | 32289 ft | 419 kts | 229° |
| 2026-04-29 15:40 | 26.99955 | 116.30726 | 32290 ft | 419 kts | 229° |
| 2026-04-29 15:40 | 26.95986 | 116.25939 | 32291 ft | 419 kts | 229° |
| 2026-04-29 15:41 | 26.92009 | 116.21141 | 32289 ft | 421 kts | 229° |
| 2026-04-29 15:41 | 26.88046 | 116.16313 | 32289 ft | 421 kts | 229° |
| 2026-04-29 15:42 | 26.84097 | 116.11478 | 32291 ft | 421 kts | 230° |
| 2026-04-29 15:42 | 26.80149 | 116.06646 | 32289 ft | 420 kts | 230° |
| 2026-04-29 15:43 | 26.76227 | 116.01853 | 32290 ft | 420 kts | 229° |
| 2026-04-29 15:43 | 26.72249 | 115.96996 | 32289 ft | 421 kts | 230° |
| 2026-04-29 15:44 | 26.68315 | 115.92200 | 32289 ft | 421 kts | 230° |
| 2026-04-29 15:44 | 26.64351 | 115.87372 | 32290 ft | 421 kts | 230° |
| 2026-04-29 15:45 | 26.60385 | 115.82547 | 32291 ft | 422 kts | 230° |
| 2026-04-29 15:45 | 26.56416 | 115.77724 | 32288 ft | 422 kts | 230° |
| 2026-04-29 15:46 | 26.52446 | 115.72904 | 32288 ft | 422 kts | 230° |
| 2026-04-29 15:46 | 26.48467 | 115.68079 | 32289 ft | 422 kts | 230° |
| 2026-04-29 15:47 | 26.44490 | 115.63264 | 32290 ft | 422 kts | 230° |
| 2026-04-29 15:47 | 26.40512 | 115.58450 | 32291 ft | 422 kts | 230° |
| 2026-04-29 15:48 | 26.36533 | 115.53641 | 32290 ft | 422 kts | 229° |
| 2026-04-29 15:48 | 26.32546 | 115.48849 | 32288 ft | 421 kts | 229° |
| 2026-04-29 15:49 | 26.28559 | 115.44057 | 32299 ft | 422 kts | 229° |
| 2026-04-29 15:49 | 26.24571 | 115.39258 | 32298 ft | 422 kts | 230° |
| 2026-04-29 15:50 | 26.20584 | 115.34461 | 32298 ft | 422 kts | 230° |
| 2026-04-29 15:50 | 26.16594 | 115.29665 | 32298 ft | 422 kts | 230° |
| 2026-04-29 15:51 | 26.12605 | 115.24875 | 32300 ft | 422 kts | 230° |
| 2026-04-29 15:51 | 26.08611 | 115.20084 | 32298 ft | 422 kts | 230° |
| 2026-04-29 15:52 | 26.04641 | 115.15329 | 32299 ft | 422 kts | 230° |
| 2026-04-29 15:52 | 26.00650 | 115.10553 | 32299 ft | 421 kts | 230° |
| 2026-04-29 15:53 | 25.96651 | 115.05771 | 32285 ft | 425 kts | 229° |
| 2026-04-29 15:53 | 25.92614 | 115.00948 | 32283 ft | 427 kts | 229° |
| 2026-04-29 15:54 | 25.88560 | 114.96114 | 32298 ft | 427 kts | 230° |
| 2026-04-29 15:54 | 25.84475 | 114.91315 | 32297 ft | 428 kts | 227° |
| 2026-04-29 15:55 | 25.79589 | 114.87480 | 32296 ft | 439 kts | 209° |
| 2026-04-29 15:55 | 25.73654 | 114.85579 | 32298 ft | 449 kts | 198° |
| 2026-04-29 15:56 | 25.67503 | 114.84264 | 32290 ft | 450 kts | 197° |
| 2026-04-29 15:56 | 25.61361 | 114.82863 | 32289 ft | 450 kts | 198° |
| 2026-04-29 15:57 | 25.55247 | 114.81368 | 32290 ft | 450 kts | 199° |
| 2026-04-29 15:57 | 25.49140 | 114.79844 | 32287 ft | 450 kts | 199° |
| 2026-04-29 15:58 | 25.43036 | 114.78320 | 32280 ft | 450 kts | 199° |
| 2026-04-29 15:58 | 25.37956 | 114.77055 | 32272 ft | 451 kts | 198° |
| 2026-04-29 15:59 | 25.31834 | 114.75534 | 32270 ft | 451 kts | 198° |
| 2026-04-29 15:59 | 25.25712 | 114.74015 | 32263 ft | 451 kts | 198° |
| 2026-04-29 16:00 | 25.19576 | 114.72493 | 32260 ft | 452 kts | 198° |
| 2026-04-29 16:00 | 25.13432 | 114.70971 | 32261 ft | 452 kts | 198° |
| 2026-04-29 16:01 | 25.07297 | 114.69454 | 32263 ft | 452 kts | 198° |
| 2026-04-29 16:01 | 25.01158 | 114.67937 | 32265 ft | 452 kts | 198° |
| 2026-04-29 16:02 | 24.95012 | 114.66420 | 32264 ft | 453 kts | 198° |
| 2026-04-29 16:02 | 24.88855 | 114.64905 | 32254 ft | 453 kts | 198° |
| 2026-04-29 16:03 | 24.82704 | 114.63390 | 32254 ft | 453 kts | 198° |
| 2026-04-29 16:03 | 24.76546 | 114.61869 | 32250 ft | 455 kts | 198° |
| 2026-04-29 16:04 | 24.70401 | 114.60254 | 32253 ft | 451 kts | 203° |
| 2026-04-29 16:04 | 24.64788 | 114.57333 | 32254 ft | 445 kts | 213° |
| 2026-04-29 16:05 | 24.59483 | 114.53830 | 32248 ft | 445 kts | 214° |
| 2026-04-29 16:05 | 24.54167 | 114.50335 | 32252 ft | 446 kts | 214° |
| 2026-04-29 16:06 | 24.48839 | 114.46922 | 32249 ft | 447 kts | 213° |
| 2026-04-29 16:06 | 24.43456 | 114.43510 | 32242 ft | 447 kts | 213° |
| 2026-04-29 16:07 | 24.38071 | 114.40111 | 32245 ft | 446 kts | 213° |
| 2026-04-29 16:07 | 24.32676 | 114.36712 | 32242 ft | 448 kts | 213° |
| 2026-04-29 16:08 | 24.27280 | 114.33313 | 32243 ft | 448 kts | 213° |
| 2026-04-29 16:08 | 24.21865 | 114.29904 | 32242 ft | 450 kts | 213° |
| 2026-04-29 16:09 | 24.16438 | 114.26491 | 32242 ft | 450 kts | 213° |
| 2026-04-29 16:09 | 24.11107 | 114.22923 | 32244 ft | 447 kts | 219° |
| 2026-04-29 16:10 | 24.06860 | 114.18082 | 32243 ft | 441 kts | 238° |
| 2026-04-29 16:10 | 24.05472 | 114.15097 | 32245 ft | 440 kts | 249° |
| 2026-04-29 16:10 | 24.04660 | 114.11869 | 32245 ft | 442 kts | 259° |
| 2026-04-29 16:10 | 24.04458 | 114.08511 | 32248 ft | 445 kts | 270° |
| 2026-04-29 16:11 | 24.04831 | 114.05142 | 32246 ft | 448 kts | 277° |
| 2026-04-29 16:11 | 24.06136 | 113.98465 | 32244 ft | 450 kts | 282° |
| 2026-04-29 16:12 | 24.08300 | 113.92001 | 32243 ft | 457 kts | 293° |
| 2026-04-29 16:12 | 24.11952 | 113.86245 | 32246 ft | 466 kts | 306° |
| 2026-04-29 16:13 | 24.15815 | 113.80607 | 32243 ft | 459 kts | 295° |
| 2026-04-29 16:13 | 24.18434 | 113.74320 | 32243 ft | 452 kts | 286° |
| 2026-04-29 16:14 | 24.20353 | 113.67788 | 32241 ft | 448 kts | 280° |
| 2026-04-29 16:14 | 24.21479 | 113.61146 | 32243 ft | 446 kts | 276° |
| 2026-04-29 16:15 | 24.22124 | 113.54415 | 32242 ft | 442 kts | 268° |
| 2026-04-29 16:15 | 24.21356 | 113.47793 | 32224 ft | 438 kts | 253° |
| 2026-04-29 16:16 | 24.18885 | 113.41719 | 32227 ft | 438 kts | 238° |
| 2026-04-29 16:16 | 24.14961 | 113.36605 | 32223 ft | 443 kts | 224° |
| 2026-04-29 16:17 | 24.09848 | 113.32801 | 32229 ft | 450 kts | 210° |
| 2026-04-29 16:17 | 24.03855 | 113.30649 | 32225 ft | 460 kts | 195° |
| 2026-04-29 16:18 | 23.97398 | 113.30427 | 32220 ft | 473 kts | 179° |
| 2026-04-29 16:18 | 23.90972 | 113.32304 | 32222 ft | 487 kts | 161° |
| 2026-04-29 16:19 | 23.85187 | 113.36294 | 32224 ft | 501 kts | 143° |
| 2026-04-29 16:19 | 23.80100 | 113.41497 | 32225 ft | 496 kts | 149° |
| 2026-04-29 16:19 | 23.77178 | 113.43443 | 32227 ft | 488 kts | 160° |
| 2026-04-29 16:20 | 23.74045 | 113.44756 | 32226 ft | 480 kts | 169° |
| 2026-04-29 16:20 | 23.67559 | 113.46327 | 32224 ft | 478 kts | 173° |
| 2026-04-29 16:21 | 23.61133 | 113.48062 | 32222 ft | 478 kts | 174° |
| 2026-04-29 16:21 | 23.57876 | 113.48496 | 32219 ft | 466 kts | 184° |
| 2026-04-29 16:21 | 23.54718 | 113.48295 | 31715 ft | 444 kts | 194° |
| 2026-04-29 16:21 | 23.51774 | 113.47498 | 30922 ft | 432 kts | 202° |
| 2026-04-29 16:22 | 23.48951 | 113.46461 | 30113 ft | 425 kts | 204° |
| 2026-04-29 16:22 | 23.46173 | 113.45432 | 29312 ft | 419 kts | 202° |
| 2026-04-29 16:22 | 23.43427 | 113.44493 | 28542 ft | 410 kts | 201° |
| 2026-04-29 16:22 | 23.40699 | 113.43639 | 27780 ft | 406 kts | 200° |
| 2026-04-29 16:23 | 23.37989 | 113.42845 | 27035 ft | 401 kts | 200° |
| 2026-04-29 16:23 | 23.35307 | 113.42091 | 26296 ft | 396 kts | 199° |
| 2026-04-29 16:23 | 23.32649 | 113.41360 | 25565 ft | 391 kts | 199° |
| 2026-04-29 16:23 | 23.30026 | 113.40645 | 24843 ft | 386 kts | 199° |
| 2026-04-29 16:24 | 23.27431 | 113.39943 | 24092 ft | 384 kts | 199° |
| 2026-04-29 16:24 | 23.24845 | 113.39244 | 23312 ft | 381 kts | 199° |
| 2026-04-29 16:24 | 23.22280 | 113.38550 | 22548 ft | 379 kts | 199° |
| 2026-04-29 16:24 | 23.19729 | 113.37860 | 21757 ft | 377 kts | 199° |
| 2026-04-29 16:25 | 23.17191 | 113.37174 | 20976 ft | 375 kts | 198° |
| 2026-04-29 16:25 | 23.14666 | 113.36491 | 20199 ft | 373 kts | 198° |
| 2026-04-29 16:25 | 23.12151 | 113.35812 | 19436 ft | 371 kts | 198° |
| 2026-04-29 16:25 | 23.09677 | 113.35145 | 18929 ft | 361 kts | 198° |
| 2026-04-29 16:26 | 23.07252 | 113.34492 | 18185 ft | 359 kts | 198° |
| 2026-04-29 16:26 | 23.04829 | 113.33838 | 17378 ft | 359 kts | 198° |
| 2026-04-29 16:26 | 23.02399 | 113.33181 | 16569 ft | 359 kts | 198° |
| 2026-04-29 16:26 | 22.99982 | 113.32528 | 15775 ft | 358 kts | 198° |
| 2026-04-29 16:27 | 22.97563 | 113.31874 | 14971 ft | 357 kts | 198° |
| 2026-04-29 16:27 | 22.95201 | 113.31237 | 14198 ft | 340 kts | 199° |
| 2026-04-29 16:27 | 22.93072 | 113.30372 | 13474 ft | 315 kts | 215° |
| 2026-04-29 16:27 | 22.91594 | 113.28777 | 12828 ft | 292 kts | 242° |
| 2026-04-29 16:28 | 22.91084 | 113.26731 | 12219 ft | 277 kts | 269° |
| 2026-04-29 16:28 | 22.91338 | 113.24726 | 11660 ft | 268 kts | 281° |
| 2026-04-29 16:28 | 22.91828 | 113.22817 | 11101 ft | 259 kts | 286° |
| 2026-04-29 16:28 | 22.92664 | 113.21114 | 10557 ft | 256 kts | 306° |
| 2026-04-29 16:29 | 22.94066 | 113.19949 | 10041 ft | 258 kts | 334° |
| 2026-04-29 16:29 | 22.95835 | 113.19672 | 9512 ft | 260 kts | 1° |
| 2026-04-29 16:29 | 22.97612 | 113.20014 | 9011 ft | 259 kts | 11° |
| 2026-04-29 16:29 | 22.99330 | 113.20504 | 8468 ft | 251 kts | 13° |
| 2026-04-29 16:30 | 23.00994 | 113.20992 | 7985 ft | 245 kts | 13° |
| 2026-04-29 16:30 | 23.02631 | 113.21462 | 7512 ft | 241 kts | 13° |
| 2026-04-29 16:30 | 23.04236 | 113.21915 | 7116 ft | 236 kts | 13° |
| 2026-04-29 16:30 | 23.05826 | 113.22354 | 6678 ft | 234 kts | 12° |
| 2026-04-29 16:31 | 23.07397 | 113.22756 | 6248 ft | 230 kts | 12° |
| 2026-04-29 16:31 | 23.08940 | 113.23157 | 5883 ft | 227 kts | 13° |
| 2026-04-29 16:31 | 23.10463 | 113.23561 | 5468 ft | 224 kts | 13° |
| 2026-04-29 16:31 | 23.11942 | 113.23956 | 5129 ft | 215 kts | 14° |
| 2026-04-29 16:32 | 23.13389 | 113.24363 | 4822 ft | 214 kts | 14° |
| 2026-04-29 16:32 | 23.14818 | 113.24766 | 4521 ft | 211 kts | 14° |
| 2026-04-29 16:32 | 23.16227 | 113.25162 | 4232 ft | 205 kts | 13° |
| 2026-04-29 16:32 | 23.17581 | 113.25518 | 3944 ft | 198 kts | 13° |
| 2026-04-29 16:33 | 23.20230 | 113.26218 | 3408 ft | 194 kts | 13° |
| 2026-04-29 16:33 | 23.21508 | 113.26557 | 3168 ft | 191 kts | 13° |
| 2026-04-29 16:33 | 23.22717 | 113.26894 | 2871 ft | 161 kts | 14° |
| 2026-04-29 16:34 | 23.23773 | 113.27192 | 2665 ft | 154 kts | 14° |
| 2026-04-29 16:34 | 23.24790 | 113.27474 | 2470 ft | 152 kts | 13° |
| 2026-04-29 16:34 | 23.25817 | 113.27743 | 2280 ft | 151 kts | 12° |
| 2026-04-29 16:34 | 23.26836 | 113.28009 | 2086 ft | 150 kts | 13° |
| 2026-04-29 16:35 | 23.27848 | 113.28283 | 1887 ft | 149 kts | 13° |
| 2026-04-29 16:35 | 23.28859 | 113.28557 | 1698 ft | 150 kts | 14° |
| 2026-04-29 16:35 | 23.29874 | 113.28832 | 1504 ft | 148 kts | 13° |
| 2026-04-29 16:35 | 23.30880 | 113.29098 | 1304 ft | 147 kts | 13° |
| 2026-04-29 16:36 | 23.31886 | 113.29380 | 1109 ft | 151 kts | 14° |
| 2026-04-29 16:36 | 23.32885 | 113.29666 | 904 ft | 148 kts | 14° |
| 2026-04-29 16:36 | 23.33897 | 113.29937 | 715 ft | 148 kts | 14° |
| 2026-04-29 16:36 | 23.34892 | 113.30210 | 524 ft | 149 kts | 14° |
| 2026-04-29 16:37 | 23.35896 | 113.30486 | 321 ft | 147 kts | 14° |
| 2026-04-29 16:37 | 23.36891 | 113.30751 | 150 ft | 150 kts | 14° |
| 2026-04-29 16:37 | 23.37863 | 113.31016 | 59 ft | 129 kts | 14° |
| 2026-04-29 16:37 | 23.38387 | 113.31155 | 59 ft | 102 kts | 14° |
| 2026-04-29 16:38 | 23.39118 | 113.31352 | 57 ft | 51 kts | 14° |
| 2026-04-29 16:38 | 23.39378 | 113.31468 | 64 ft | 33 kts | 41° |
| 2026-04-29 16:38 | 23.39502 | 113.31587 | 63 ft | 13 kts | 41° |
| 2026-04-29 16:38 | 23.39550 | 113.31633 | 66 ft | 11 kts | 41° |
| 2026-04-29 16:39 | 23.39628 | 113.31691 | 58 ft | 14 kts | 24° |
| 2026-04-29 16:39 | 23.39687 | 113.31710 | 60 ft | 10 kts | 13° |
| 2026-04-29 16:39 | 23.39727 | 113.31749 | 66 ft | 7 kts | 78° |
| 2026-04-29 16:39 | 23.39712 | 113.31835 | 60 ft | 13 kts | 103° |
| 2026-04-29 16:40 | 23.39690 | 113.31930 | 57 ft | 12 kts | 104° |
| 2026-04-29 16:40 | 23.39693 | 113.32001 | 66 ft | 5 kts | 55° |
| 2026-04-29 16:40 | 23.39733 | 113.32021 | 66 ft | 9 kts | 17° |
| 2026-04-29 16:40 | 23.39826 | 113.32048 | 61 ft | 16 kts | 14° |
| 2026-04-29 16:41 | 23.39933 | 113.32076 | 59 ft | 15 kts | 14° |
| 2026-04-29 16:41 | 23.40018 | 113.32099 | 57 ft | 9 kts | 14° |
| 2026-04-29 16:41 | 23.40042 | 113.32121 | 57 ft | 5 kts | 61° |
| 2026-04-29 16:41 | 23.40040 | 113.32166 | 62 ft | 7 kts | 100° |
| 2026-04-29 16:42 | 23.40033 | 113.32200 | 63 ft | 2 kts | 103° |
| 2026-04-29 16:42 | 23.40032 | 113.32202 | 66 ft | 0 kts | 103° |